Time;durP1;ratioP1;P1;durP2;ratioP2;P2;SDS_P1;SDS_P2;PMS_P1;PMS_P2;Temp;Humidity;BMP_temperature;BMP_pressure;BME280_temperature;BME280_humidity;BME280_pressure;Samples;Min_cycle;Max_cycle;Signal;HPM_P1;HPM_P2
2023/06/29 00:02:03;;;;;;;7.88;3.75;;;;;;;;;;6310848;22;20027;-94
2023/06/29 00:04:32;;;;;;;4.93;3.20;;;;;;;;;;6314498;22;20007;-94
2023/06/29 00:07:02;;;;;;;6.67;3.40;;;;;;;;;;6223679;22;1576154;-93
2023/06/29 00:09:29;;;;;;;6.78;3.72;;;;;;;;;;6287555;22;20029;-94
2023/06/29 00:12:01;;;;;;;9.50;4.30;;;;;;;;;;6288332;22;20375;-94
2023/06/29 00:14:31;;;;;;;6.85;3.72;;;;;;;;;;6287865;22;20455;-94
2023/06/29 00:17:14;;;;;;;7.75;4.00;;;;;;;;;;6288372;22;20026;-94
2023/06/29 00:19:47;;;;;;;8.45;4.10;;;;;;;;;;6287061;22;20032;-95
2023/06/29 00:22:19;;;;;;;5.03;3.80;;;;;;;;;;6286797;22;20337;-95
2023/06/29 00:24:56;;;;;;;4.60;3.10;;;;;;;;;;6288993;22;20054;-94
2023/06/29 00:29:52;;;;;;;5.45;3.13;;;;;;;;;;6312498;22;20023;-95
2023/06/29 00:32:19;;;;;;;6.20;3.97;;;;;;;;;;6263114;22;20024;-93
2023/06/29 00:34:45;;;;;;;5.50;3.35;;;;;;;;;;6257623;22;20023;-94
2023/06/29 00:37:21;;;;;;;;;;;;;;;;;;;;;
2023/06/29 00:39:47;;;;;;;10.75;4.20;;;;;;;;;;6277987;22;20106;-93
2023/06/29 00:42:14;;;;;;;6.30;3.63;;;;;;;;;;6253632;22;20001;-95
2023/06/29 00:45:04;;;;;;;6.15;3.90;;;;;;;;;;6254875;22;20452;-94
2023/06/29 00:47:32;;;;;;;6.63;3.90;;;;;;;;;;6291037;22;20011;-94
2023/06/29 00:50:01;;;;;;;6.68;3.90;;;;;;;;;;6283997;22;20314;-93
2023/06/29 00:52:28;;;;;;;5.97;3.92;;;;;;;;;;6265557;22;20000;-94
2023/06/29 00:57:29;;;;;;;4.70;3.88;;;;;;;;;;6315045;22;20042;-93
2023/06/29 01:00:10;;;;;;;8.13;3.90;;;;;;;;;;6282291;22;20432;-93
2023/06/29 01:02:40;;;;;;;6.70;3.55;;;;;;;;;;6288790;22;20007;-93
2023/06/29 01:05:09;;;;;;;7.30;4.10;;;;;;;;;;6281989;22;19999;-93
2023/06/29 01:07:54;;;;;;;9.27;4.00;;;;;;;;;;6285176;22;20041;-94
2023/06/29 01:10:36;;;;;;;7.10;3.30;;;;;;;;;;6287640;22;20003;-92
2023/06/29 01:13:15;;;;;;;8.25;3.80;;;;;;;;;;6284848;22;20003;-93
2023/06/29 01:15:49;;;;;;;10.00;4.05;;;;;;;;;;6285724;22;20008;-94
2023/06/29 01:18:16;;;;;;;7.30;3.20;;;;;;;;;;6286133;22;20018;-94
2023/06/29 01:20:49;;;;;;;9.02;4.30;;;;;;;;;;6250796;23;20004;-96
2023/06/29 01:29:31;;;;;;;7.25;4.05;;;;;;;;;;6188061;23;20047;-95
2023/06/29 01:32:03;;;;;;;9.02;4.32;;;;;;;;;;6168204;23;20175;-94
2023/06/29 01:34:41;;;;;;;6.05;3.40;;;;;;;;;;6164677;23;20009;-93
2023/06/29 01:37:36;;;;;;;7.80;4.20;;;;;;;;;;6165550;23;20004;-94
2023/06/29 01:40:07;;;;;;;7.50;3.58;;;;;;;;;;6074910;23;20332;-96
2023/06/29 01:42:38;;;;;;;8.55;4.25;;;;;;;;;;6104821;23;19998;-95
2023/06/29 01:45:08;;;;;;;10.73;4.70;;;;;;;;;;6176837;23;20053;-96
2023/06/29 01:47:37;;;;;;;8.93;4.40;;;;;;;;;;6186988;23;20017;-94
2023/06/29 01:50:04;;;;;;;6.43;3.80;;;;;;;;;;6188718;23;20005;-95
2023/06/29 01:52:36;;;;;;;7.38;4.05;;;;;;;;;;6241620;22;20031;-95
2023/06/29 01:55:04;;;;;;;8.77;3.47;;;;;;;;;;6288348;22;20043;-95
2023/06/29 02:00:37;;;;;;;7.20;4.30;;;;;;;;;;6319048;22;19994;-94
2023/06/29 02:03:03;;;;;;;7.60;3.50;;;;;;;;;;6260838;22;20051;-95
2023/06/29 02:05:32;;;;;;;6.35;3.92;;;;;;;;;;6256373;22;20018;-94
2023/06/29 02:07:58;;;;;;;8.23;3.50;;;;;;;;;;6271362;22;20098;-94
2023/06/29 02:10:25;;;;;;;6.20;3.92;;;;;;;;;;6258254;22;20007;-92
2023/06/29 02:12:57;;;;;;;5.57;4.15;;;;;;;;;;6283738;22;20030;-95
2023/06/29 02:15:32;;;;;;;7.00;4.20;;;;;;;;;;6271244;22;20054;-93
2023/06/29 02:18:07;;;;;;;10.18;3.47;;;;;;;;;;6276528;22;20015;-94
2023/06/29 02:20:33;;;;;;;6.18;4.38;;;;;;;;;;6283769;22;20371;-94
2023/06/29 02:22:59;;;;;;;5.28;3.17;;;;;;;;;;6271280;22;20083;-95
2023/06/29 02:25:29;;;;;;;11.45;4.32;;;;;;;;;;6252073;22;20026;-95
2023/06/29 02:27:55;;;;;;;4.95;3.00;;;;;;;;;;6255634;22;20016;-95
2023/06/29 02:30:24;;;;;;;6.55;3.00;;;;;;;;;;6252945;22;20303;-96
2023/06/29 02:32:50;;;;;;;9.65;3.60;;;;;;;;;;6256572;22;20441;-95
2023/06/29 02:35:16;;;;;;;5.47;3.20;;;;;;;;;;6252697;22;20011;-95
2023/06/29 02:37:46;;;;;;;9.80;4.07;;;;;;;;;;6254605;22;20003;-96
2023/06/29 02:42:51;;;;;;;12.23;4.32;;;;;;;;;;6298089;22;20027;-94
2023/06/29 02:45:20;;;;;;;6.53;4.10;;;;;;;;;;6262113;22;20004;-95
2023/06/29 02:47:46;;;;;;;8.80;3.90;;;;;;;;;;6250898;22;20445;-93
2023/06/29 02:50:12;;;;;;;8.57;3.88;;;;;;;;;;6280172;22;20054;-93
2023/06/29 02:52:38;;;;;;;7.68;3.38;;;;;;;;;;6269031;22;20020;-94
2023/06/29 02:55:08;;;;;;;7.45;3.70;;;;;;;;;;6236063;22;20114;-94
2023/06/29 02:57:41;;;;;;;7.40;4.03;;;;;;;;;;6224020;23;20012;-94
2023/06/29 03:00:08;;;;;;;5.32;3.40;;;;;;;;;;6229507;22;19994;-94
2023/06/29 03:02:34;;;;;;;9.13;4.30;;;;;;;;;;6225114;23;20009;-95
2023/06/29 03:05:06;;;;;;;7.63;3.90;;;;;;;;;;6186483;23;20012;-93
2023/06/29 03:10:33;;;;;;;7.47;4.38;;;;;;;;;;6278464;22;20445;-93
2023/06/29 03:13:02;;;;;;;6.75;4.32;;;;;;;;;;6115919;22;20076;-94
2023/06/29 03:15:28;;;;;;;6.68;4.28;;;;;;;;;;6258031;22;20004;-93
2023/06/29 03:17:57;;;;;;;6.07;4.00;;;;;;;;;;6284330;22;20486;-95
2023/06/29 03:20:42;;;;;;;5.20;3.83;;;;;;;;;;6283527;22;19987;-94
2023/06/29 03:23:17;;;;;;;;;;;;;;;;;;6310002;22;20007;-95
2023/06/29 03:25:43;;;;;;;9.77;3.38;;;;;;;;;;6289303;22;19887;-94
2023/06/29 03:31:01;;;;;;;5.93;3.38;;;;;;;;;;6193928;23;20017;-94
2023/06/29 03:33:27;;;;;;;9.80;3.75;;;;;;;;;;6251528;22;20074;-94
2023/06/29 03:35:53;;;;;;;7.45;3.10;;;;;;;;;;6257660;22;20008;-92
2023/06/29 03:38:22;;;;;;;8.15;3.00;;;;;;;;;;6245574;22;20023;-95
2023/06/29 03:40:49;;;;;;;9.75;3.40;;;;;;;;;;6257507;22;20007;-93
2023/06/29 03:43:15;;;;;;;7.35;3.90;;;;;;;;;;6259621;22;20007;-93
2023/06/29 03:45:50;;;;;;;8.60;3.53;;;;;;;;;;6254408;22;20003;-96
2023/06/29 03:48:31;;;;;;;8.73;3.20;;;;;;;;;;6249741;22;20111;-94
2023/06/29 03:50:58;;;;;;;5.25;3.03;;;;;;;;;;6254081;22;20018;-96
2023/06/29 03:53:27;;;;;;;6.68;2.75;;;;;;;;;;6253143;22;20061;-95
2023/06/29 03:55:56;;;;;;;7.05;2.53;;;;;;;;;;6254277;22;20004;-95
2023/06/29 03:58:42;;;;;;;8.27;2.50;;;;;;;;;;6253953;22;20416;-95
2023/06/29 04:04:09;;;;;;;5.38;2.08;;;;;;;;;;6279491;22;20019;-95
2023/06/29 04:06:41;;;;;;;6.13;1.90;;;;;;;;;;6244759;22;20071;-95
2023/06/29 04:09:11;;;;;;;4.73;2.10;;;;;;;;;;6267256;22;20043;-94
2023/06/29 04:20:03;;;;;;;3.42;1.70;;;;;;;;;;6271064;22;20087;-92
2023/06/29 04:25:08;;;;;;;4.35;2.00;;;;;;;;;;6278147;22;20046;-94
2023/06/29 04:27:34;;;;;;;4.38;1.60;;;;;;;;;;6253727;22;20003;-94
2023/06/29 04:35:32;;;;;;;3.38;1.58;;;;;;;;;;6282807;22;20397;-94
2023/06/29 04:37:59;;;;;;;4.05;1.73;;;;;;;;;;6254798;22;20012;-94
2023/06/29 04:40:25;;;;;;;5.35;1.90;;;;;;;;;;6287592;22;20007;-95
2023/06/29 04:42:55;;;;;;;7.93;1.75;;;;;;;;;;6254082;22;20019;-94
2023/06/29 04:45:31;;;;;;;5.28;2.03;;;;;;;;;;6266194;22;20020;-96
2023/06/29 04:47:58;;;;;;;7.15;1.75;;;;;;;;;;6286543;22;20011;-93
2023/06/29 04:50:35;;;;;;;3.53;1.60;;;;;;;;;;6289314;22;20010;-93
2023/06/29 05:18:34;;;;;;;;;;;;;;;;;;6261882;22;20024;-92
2023/06/29 05:27:45;;;;;;;4.35;1.40;;;;;;;;;;6201724;23;20019;-93
2023/06/29 05:30:18;;;;;;;4.28;1.30;;;;;;;;;;6188181;23;20017;-92
2023/06/29 05:35:43;;;;;;;6.03;1.50;;;;;;;;;;6310707;22;20047;-94
2023/06/29 05:44:28;;;;;;;4.90;1.48;;;;;;;;;;6309001;22;20532;-95
2023/06/29 05:47:04;;;;;;;4.53;1.52;;;;;;;;;;6282241;22;20432;-96
2023/06/29 05:52:39;;;;;;;5.28;1.88;;;;;;;;;;6309496;22;20065;-94
2023/06/29 05:55:25;;;;;;;;;;;;;;;;;;;;;
2023/06/29 05:57:54;;;;;;;4.28;1.70;;;;;;;;;;6309380;22;20086;-94
2023/06/29 06:01:08;;;;;;;4.72;1.83;;;;;;;;;;6281876;22;20034;-96
2023/06/29 06:03:15;;;;;;;4.05;1.67;;;;;;;;;;6287557;22;20046;-94
2023/06/29 06:08:34;;;;;;;3.10;1.83;;;;;;;;;;6305214;22;20019;-94
2023/06/29 06:17:50;;;;;;;;;;;;;;;;;;;;;
2023/06/29 14:51:33;;;;;;;4.45;1.52;;;;;;;;;;6266526;22;20472;-96
2023/06/29 15:04:45;;;;;;;3.17;1.60;;;;;;;;;;6285329;22;20103;-95
2023/06/29 15:07:12;;;;;;;4.30;2.70;;;;;;;;;;6252727;22;20081;-96
2023/06/29 15:13:21;;;;;;;3.00;1.83;;;;;;;;;;6252715;22;20020;-96
2023/06/29 15:15:59;;;;;;;2.60;1.70;;;;;;;;;;6257544;22;20024;-93
2023/06/29 15:26:32;;;;;;;3.60;1.92;;;;;;;;;;6280885;22;20030;-95
2023/06/29 15:28:58;;;;;;;2.97;1.80;;;;;;;;;;6257468;22;20390;-95
2023/06/29 15:43:40;;;;;;;6.70;1.80;;;;;;;;;;6281635;22;20376;-94
2023/06/29 15:46:14;;;;;;;3.53;1.55;;;;;;;;;;6254316;22;20438;-93
2023/06/29 15:49:01;;;;;;;2.97;1.50;;;;;;;;;;6252740;22;20012;-93
2023/06/29 15:57:06;;;;;;;;;;;;;;;;;;6317739;22;20348;-96
2023/06/29 16:05:20;;;;;;;3.42;1.80;;;;;;;;;;6281963;22;20057;-95
2023/06/29 16:08:00;;;;;;;3.05;1.67;;;;;;;;;;6265028;22;20013;-96
2023/06/29 16:15:45;;;;;;;3.47;1.65;;;;;;;;;;6260201;22;20038;-93
2023/06/29 16:18:11;;;;;;;2.45;1.63;;;;;;;;;;6277118;22;20011;-92
2023/06/29 16:20:38;;;;;;;4.85;1.75;;;;;;;;;;6256357;22;20031;-93
2023/06/29 16:23:13;;;;;;;3.10;1.60;;;;;;;;;;6252576;22;20429;-93
2023/06/29 16:25:39;;;;;;;5.63;1.83;;;;;;;;;;6251978;22;20004;-93
2023/06/29 16:28:05;;;;;;;2.83;1.73;;;;;;;;;;6253613;22;20008;-93
2023/06/29 16:30:37;;;;;;;3.20;1.73;;;;;;;;;;6256603;22;20004;-93
2023/06/29 16:33:03;;;;;;;4.22;1.65;;;;;;;;;;6261932;22;20011;-93
2023/06/29 16:35:53;;;;;;;2.80;1.77;;;;;;;;;;6254058;22;20028;-93
2023/06/29 16:44:31;;;;;;;2.63;1.63;;;;;;;;;;6291835;22;20055;-95
2023/06/29 16:46:57;;;;;;;5.18;1.88;;;;;;;;;;6281227;22;20455;-95
2023/06/29 16:49:23;;;;;;;3.22;1.77;;;;;;;;;;6282997;22;20433;-93
2023/06/29 16:51:56;;;;;;;2.92;1.70;;;;;;;;;;6282141;22;20003;-93
2023/06/29 16:54:38;;;;;;;7.25;1.80;;;;;;;;;;6282438;22;20097;-93
2023/06/29 16:57:04;;;;;;;3.38;1.80;;;;;;;;;;6282311;22;20068;-94
2023/06/29 16:59:34;;;;;;;4.38;1.90;;;;;;;;;;6293280;22;20003;-94
2023/06/29 17:02:11;;;;;;;2.60;1.63;;;;;;;;;;6281675;22;20011;-94
2023/06/29 17:04:40;;;;;;;5.35;1.88;;;;;;;;;;6282381;22;20080;-93
2023/06/29 17:07:06;;;;;;;3.60;1.70;;;;;;;;;;6278459;22;20082;-94
2023/06/29 17:09:58;;;;;;;5.40;1.90;;;;;;;;;;6282187;22;20016;-93
2023/06/29 17:12:36;;;;;;;2.42;1.90;;;;;;;;;;6282345;22;20003;-95
2023/06/29 17:15:02;;;;;;;2.63;1.90;;;;;;;;;;6281905;22;19999;-93
2023/06/29 17:17:32;;;;;;;4.18;1.90;;;;;;;;;;6281992;22;20030;-94
2023/06/29 17:20:02;;;;;;;2.50;1.90;;;;;;;;;;6283029;22;20428;-95
2023/06/29 17:22:29;;;;;;;3.20;2.00;;;;;;;;;;6284548;22;20458;-96
2023/06/29 17:24:56;;;;;;;3.33;2.00;;;;;;;;;;6289880;22;20011;-94
2023/06/29 17:27:25;;;;;;;3.08;1.65;;;;;;;;;;6281775;22;20417;-95
2023/06/29 17:29:52;;;;;;;3.20;1.90;;;;;;;;;;6281969;22;20034;-94
2023/06/29 17:32:18;;;;;;;3.60;2.00;;;;;;;;;;6282074;22;20345;-95
2023/06/29 17:35:10;;;;;;;3.17;2.00;;;;;;;;;;6256478;22;20098;-96
2023/06/29 17:37:39;;;;;;;2.60;1.85;;;;;;;;;;6282149;22;20007;-96
2023/06/29 17:40:06;;;;;;;3.90;2.03;;;;;;;;;;6292788;22;20007;-92
2023/06/29 17:42:35;;;;;;;3.78;2.05;;;;;;;;;;6289085;22;19996;-96
2023/06/29 17:45:01;;;;;;;5.28;2.30;;;;;;;;;;6283106;22;20082;-94
2023/06/29 17:47:28;;;;;;;31.83;10.77;;;;;;;;;;6273430;22;20008;-96
2023/06/29 17:49:54;;;;;;;50.63;15.90;;;;;;;;;;6301614;22;20030;-94
2023/06/29 17:58:28;;;;;;;4.47;2.05;;;;;;;;;;6313643;22;20014;-96
2023/06/29 18:00:54;;;;;;;7.97;2.70;;;;;;;;;;6282663;22;20483;-92
2023/06/29 18:03:20;;;;;;;4.80;2.30;;;;;;;;;;6281680;22;20090;-92
2023/06/29 18:05:46;;;;;;;4.55;2.00;;;;;;;;;;6281923;22;20082;-92
2023/06/29 18:08:49;;;;;;;4.25;2.13;;;;;;;;;;6281864;22;20425;-92
2023/06/29 18:11:14;;;;;;;3.53;2.15;;;;;;;;;;6305530;22;20022;-92
2023/06/29 18:13:40;;;;;;;2.67;1.80;;;;;;;;;;6282767;22;19999;-92
2023/06/29 18:16:28;;;;;;;2.63;1.95;;;;;;;;;;6281874;22;20094;-93
2023/06/29 18:22:10;;;;;;;3.30;2.20;;;;;;;;;;6218224;22;20778;-94
2023/06/29 18:24:36;;;;;;;4.70;2.30;;;;;;;;;;6262852;22;20429;-92
2023/06/29 18:35:43;;;;;;;4.75;2.30;;;;;;;;;;6307115;22;20027;-95
2023/06/29 18:50:16;;;;;;;5.85;2.78;;;;;;;;;;6315945;22;19921;-95
2023/06/29 18:52:43;;;;;;;14.00;3.40;;;;;;;;;;6288842;22;19999;-95
2023/06/29 18:55:18;;;;;;;5.93;3.00;;;;;;;;;;6286919;22;19999;-94
2023/06/29 18:58:00;;;;;;;6.25;3.22;;;;;;;;;;6288338;22;20008;-94
2023/06/29 19:09:33;;;;;;;3.83;3.20;;;;;;;;;;6319132;22;20024;-93
2023/06/29 19:12:15;;;;;;;5.72;3.13;;;;;;;;;;6287410;22;20421;-94
2023/06/29 19:15:03;;;;;;;6.78;3.58;;;;;;;;;;6294134;22;20007;-93
2023/06/29 19:27:12;;;;;;;6.75;3.20;;;;;;;;;;6319648;22;20558;-95
2023/06/29 19:52:33;;;;;;;7.05;3.95;;;;;;;;;;6315238;22;20030;-94
2023/06/29 19:57:54;;;;;;;5.05;3.65;;;;;;;;;;6303282;22;20026;-92
2023/06/29 20:00:20;;;;;;;6.30;3.80;;;;;;;;;;6289994;22;20003;-93
2023/06/29 20:05:58;;;;;;;5.22;3.47;;;;;;;;;;6314025;22;20094;-93
2023/06/29 20:08:24;;;;;;;6.10;3.85;;;;;;;;;;6288383;22;20493;-92
2023/06/29 20:11:03;;;;;;;5.13;4.10;;;;;;;;;;6285284;22;20007;-92
2023/06/29 20:16:35;;;;;;;7.47;3.85;;;;;;;;;;6313677;22;20010;-93
2023/06/29 20:28:34;;;;;;;5.53;4.05;;;;;;;;;;6315197;22;20061;-94
2023/06/29 20:31:01;;;;;;;5.22;3.75;;;;;;;;;;6285992;22;20455;-93
2023/06/29 20:37:01;;;;;;;5.85;3.90;;;;;;;;;;6316411;22;19990;-94
2023/06/29 20:42:24;;;;;;;6.53;4.88;;;;;;;;;;6302314;22;20081;-93
2023/06/29 20:48:01;;;;;;;8.90;5.00;;;;;;;;;;6283581;22;20015;-94
2023/06/29 20:53:45;;;;;;;7.15;4.68;;;;;;;;;;6329493;22;20057;-94
2023/06/29 20:59:14;;;;;;;5.25;4.57;;;;;;;;;;6314284;22;20020;-94
2023/06/29 21:02:06;;;;;;;6.97;4.32;;;;;;;;;;6301171;22;19987;-93
2023/06/29 21:11:47;;;;;;;5.97;4.53;;;;;;;;;;6282999;22;20082;-95
2023/06/29 21:14:50;;;;;;;5.03;4.50;;;;;;;;;;6251872;23;20016;-90
2023/06/29 21:17:20;;;;;;;5.90;4.10;;;;;;;;;;6226380;23;20008;-93
2023/06/29 21:19:49;;;;;;;7.78;4.53;;;;;;;;;;6234482;23;20091;-93
2023/06/29 21:22:28;;;;;;;5.93;4.20;;;;;;;;;;6224332;23;20016;-93
2023/06/29 21:34:22;;;;;;;8.73;4.68;;;;;;;;;;6312980;22;20014;-94
2023/06/29 21:39:34;;;;;;;5.65;4.40;;;;;;;;;;6293110;22;20804;-93
2023/06/29 21:45:06;;;;;;;7.00;4.50;;;;;;;;;;6286276;22;20086;-95
2023/06/29 21:50:36;;;;;;;6.82;4.22;;;;;;;;;;6283920;22;20409;-95
2023/06/29 21:53:15;;;;;;;8.05;4.63;;;;;;;;;;6283712;22;20364;-94
2023/06/29 21:55:53;;;;;;;6.57;5.03;;;;;;;;;;6283122;22;20007;-93
2023/06/29 22:16:20;;;;;;;6.18;4.28;;;;;;;;;;6311112;22;20084;-93
2023/06/29 22:18:50;;;;;;;6.35;5.00;;;;;;;;;;6282339;22;20269;-92
2023/06/29 22:21:24;;;;;;;5.70;4.43;;;;;;;;;;6291643;22;20003;-93
2023/06/29 22:24:05;;;;;;;7.10;5.07;;;;;;;;;;6311525;22;20011;-93
2023/06/29 22:29:46;;;;;;;6.85;5.20;;;;;;;;;;6313364;22;20459;-93
2023/06/29 22:32:25;;;;;;;6.47;4.88;;;;;;;;;;6283567;22;19999;-92
2023/06/29 22:35:00;;;;;;;7.63;4.72;;;;;;;;;;6240262;23;20066;-93
2023/06/29 22:49:54;;;;;;;8.35;5.30;;;;;;;;;;6282280;22;20023;-93
2023/06/29 22:52:29;;;;;;;9.80;5.47;;;;;;;;;;6189055;23;20065;-94
2023/06/29 22:58:00;;;;;;;6.82;5.80;;;;;;;;;;6225575;22;20025;-92
2023/06/29 23:00:36;;;;;;;7.65;5.05;;;;;;;;;;6284850;22;20007;-95
2023/06/29 23:03:09;;;;;;;7.90;5.60;;;;;;;;;;6310167;22;20007;-92
2023/06/29 23:05:53;;;;;;;7.20;5.60;;;;;;;;;;6285824;22;20023;-93
2023/06/29 23:08:34;;;;;;;7.43;6.10;;;;;;;;;;6297344;22;20065;-92
2023/06/29 23:11:09;;;;;;;8.98;5.88;;;;;;;;;;6284863;22;20031;-93
2023/06/29 23:13:40;;;;;;;11.27;5.68;;;;;;;;;;6285852;22;20007;-92
2023/06/29 23:18:46;;;;;;;7.90;6.15;;;;;;;;;;6246944;22;20453;-93
2023/06/29 23:21:26;;;;;;;8.73;6.03;;;;;;;;;;6283640;22;20436;-92
2023/06/29 23:44:21;;;;;;;9.45;6.35;;;;;;;;;;6271802;22;20023;31
2023/06/29 23:55:48;;;;;;;8.02;6.43;;;;;;;;;;6318838;22;20060;-93
